sensor_id;sensor_type;location;lat;lon;timestamp;P1;durP1;ratioP1;P2;durP2;ratioP2
41921;SDS011;27609;51.002;5.354;2023-09-18T00:01:55;11.25;;;5.68;;
41921;SDS011;27609;51.002;5.354;2023-09-18T00:04:20;7.30;;;5.80;;
41921;SDS011;27609;51.002;5.354;2023-09-18T00:06:46;8.25;;;5.40;;
41921;SDS011;27609;51.002;5.354;2023-09-18T00:09:12;8.45;;;5.68;;
41921;SDS011;27609;51.002;5.354;2023-09-18T00:11:39;7.97;;;6.30;;
41921;SDS011;27609;51.002;5.354;2023-09-18T00:14:05;9.30;;;6.18;;
41921;SDS011;27609;51.002;5.354;2023-09-18T00:16:32;9.00;;;5.50;;
41921;SDS011;27609;51.002;5.354;2023-09-18T00:18:58;11.43;;;6.40;;
41921;SDS011;27609;51.002;5.354;2023-09-18T00:21:23;9.18;;;6.35;;
41921;SDS011;27609;51.002;5.354;2023-09-18T00:23:50;9.10;;;5.50;;
41921;SDS011;27609;51.002;5.354;2023-09-18T00:26:17;6.95;;;5.88;;
41921;SDS011;27609;51.002;5.354;2023-09-18T00:28:42;7.85;;;5.75;;
41921;SDS011;27609;51.002;5.354;2023-09-18T00:31:08;9.27;;;6.18;;
41921;SDS011;27609;51.002;5.354;2023-09-18T00:33:34;10.23;;;6.50;;
41921;SDS011;27609;51.002;5.354;2023-09-18T00:36:00;13.32;;;6.40;;
41921;SDS011;27609;51.002;5.354;2023-09-18T00:38:26;12.13;;;6.50;;
41921;SDS011;27609;51.002;5.354;2023-09-18T00:40:52;13.18;;;7.50;;
41921;SDS011;27609;51.002;5.354;2023-09-18T00:43:17;13.75;;;7.18;;
41921;SDS011;27609;51.002;5.354;2023-09-18T00:45:47;14.48;;;7.45;;
41921;SDS011;27609;51.002;5.354;2023-09-18T00:50:39;10.18;;;7.18;;
41921;SDS011;27609;51.002;5.354;2023-09-18T00:53:09;13.95;;;8.55;;
41921;SDS011;27609;51.002;5.354;2023-09-18T00:55:38;12.63;;;7.68;;
41921;SDS011;27609;51.002;5.354;2023-09-18T00:58:04;11.07;;;7.40;;
41921;SDS011;27609;51.002;5.354;2023-09-18T01:00:31;10.85;;;8.07;;
41921;SDS011;27609;51.002;5.354;2023-09-18T01:02:56;12.68;;;7.28;;
41921;SDS011;27609;51.002;5.354;2023-09-18T01:05:22;9.95;;;7.00;;
41921;SDS011;27609;51.002;5.354;2023-09-18T01:07:48;11.57;;;7.05;;
41921;SDS011;27609;51.002;5.354;2023-09-18T01:10:14;11.18;;;6.75;;
41921;SDS011;27609;51.002;5.354;2023-09-18T01:17:48;12.73;;;7.18;;
41921;SDS011;27609;51.002;5.354;2023-09-18T01:20:14;10.55;;;5.80;;
41921;SDS011;27609;51.002;5.354;2023-09-18T01:22:40;11.25;;;5.38;;
41921;SDS011;27609;51.002;5.354;2023-09-18T01:25:06;10.38;;;6.10;;
41921;SDS011;27609;51.002;5.354;2023-09-18T01:27:32;17.83;;;6.57;;
41921;SDS011;27609;51.002;5.354;2023-09-18T01:29:58;9.88;;;5.55;;
41921;SDS011;27609;51.002;5.354;2023-09-18T01:32:25;9.45;;;5.80;;
41921;SDS011;27609;51.002;5.354;2023-09-18T01:34:55;13.45;;;6.28;;
41921;SDS011;27609;51.002;5.354;2023-09-18T01:37:23;15.68;;;5.70;;
41921;SDS011;27609;51.002;5.354;2023-09-18T01:39:50;17.83;;;6.32;;
41921;SDS011;27609;51.002;5.354;2023-09-18T01:42:16;15.45;;;6.32;;
41921;SDS011;27609;51.002;5.354;2023-09-18T01:44:42;15.68;;;6.60;;
41921;SDS011;27609;51.002;5.354;2023-09-18T01:47:09;13.48;;;6.05;;
41921;SDS011;27609;51.002;5.354;2023-09-18T01:49:38;9.93;;;6.10;;
41921;SDS011;27609;51.002;5.354;2023-09-18T01:52:05;16.65;;;6.50;;
41921;SDS011;27609;51.002;5.354;2023-09-18T01:54:31;13.73;;;6.55;;
41921;SDS011;27609;51.002;5.354;2023-09-18T01:56:58;10.70;;;6.53;;
41921;SDS011;27609;51.002;5.354;2023-09-18T01:59:24;13.15;;;5.50;;
41921;SDS011;27609;51.002;5.354;2023-09-18T02:01:50;15.85;;;6.03;;
41921;SDS011;27609;51.002;5.354;2023-09-18T02:04:16;14.60;;;5.68;;
41921;SDS011;27609;51.002;5.354;2023-09-18T02:06:43;14.48;;;6.00;;
41921;SDS011;27609;51.002;5.354;2023-09-18T02:09:09;15.15;;;6.35;;
41921;SDS011;27609;51.002;5.354;2023-09-18T02:11:36;10.00;;;4.97;;
41921;SDS011;27609;51.002;5.354;2023-09-18T02:14:03;11.48;;;5.05;;
41921;SDS011;27609;51.002;5.354;2023-09-18T02:16:32;14.02;;;5.43;;
41921;SDS011;27609;51.002;5.354;2023-09-18T02:18:58;14.50;;;5.68;;
41921;SDS011;27609;51.002;5.354;2023-09-18T02:21:24;14.50;;;5.53;;
41921;SDS011;27609;51.002;5.354;2023-09-18T02:23:50;12.13;;;5.13;;
41921;SDS011;27609;51.002;5.354;2023-09-18T02:26:17;9.38;;;4.93;;
41921;SDS011;27609;51.002;5.354;2023-09-18T02:28:46;15.07;;;4.60;;
41921;SDS011;27609;51.002;5.354;2023-09-18T02:31:12;9.88;;;3.97;;
41921;SDS011;27609;51.002;5.354;2023-09-18T02:33:39;18.55;;;5.95;;
41921;SDS011;27609;51.002;5.354;2023-09-18T02:36:05;16.67;;;3.90;;
41921;SDS011;27609;51.002;5.354;2023-09-18T02:38:31;11.52;;;5.40;;
41921;SDS011;27609;51.002;5.354;2023-09-18T02:40:57;12.65;;;4.97;;
41921;SDS011;27609;51.002;5.354;2023-09-18T02:43:23;12.60;;;5.55;;
41921;SDS011;27609;51.002;5.354;2023-09-18T02:45:49;10.93;;;5.32;;
41921;SDS011;27609;51.002;5.354;2023-09-18T02:48:15;10.68;;;4.47;;
41921;SDS011;27609;51.002;5.354;2023-09-18T02:50:41;9.35;;;5.13;;
41921;SDS011;27609;51.002;5.354;2023-09-18T02:53:07;6.75;;;4.10;;
41921;SDS011;27609;51.002;5.354;2023-09-18T02:55:47;8.52;;;4.20;;
41921;SDS011;27609;51.002;5.354;2023-09-18T02:58:14;10.35;;;4.78;;
41921;SDS011;27609;51.002;5.354;2023-09-18T03:00:45;11.50;;;4.30;;
41921;SDS011;27609;51.002;5.354;2023-09-18T03:03:13;6.75;;;3.80;;
41921;SDS011;27609;51.002;5.354;2023-09-18T03:05:39;9.85;;;4.15;;
41921;SDS011;27609;51.002;5.354;2023-09-18T03:08:06;6.15;;;4.25;;
41921;SDS011;27609;51.002;5.354;2023-09-18T03:10:33;6.05;;;3.60;;
41921;SDS011;27609;51.002;5.354;2023-09-18T03:13:03;15.10;;;3.47;;
41921;SDS011;27609;51.002;5.354;2023-09-18T03:15:30;9.02;;;3.45;;
41921;SDS011;27609;51.002;5.354;2023-09-18T03:17:56;5.35;;;2.75;;
41921;SDS011;27609;51.002;5.354;2023-09-18T03:20:23;3.80;;;3.15;;
41921;SDS011;27609;51.002;5.354;2023-09-18T03:22:59;7.60;;;3.17;;
41921;SDS011;27609;51.002;5.354;2023-09-18T03:25:26;8.10;;;3.17;;
41921;SDS011;27609;51.002;5.354;2023-09-18T03:27:53;7.68;;;3.10;;
41921;SDS011;27609;51.002;5.354;2023-09-18T03:30:20;8.45;;;2.72;;
41921;SDS011;27609;51.002;5.354;2023-09-18T03:32:47;8.30;;;2.75;;
41921;SDS011;27609;51.002;5.354;2023-09-18T03:35:15;6.80;;;3.10;;
41921;SDS011;27609;51.002;5.354;2023-09-18T03:37:45;7.03;;;3.40;;
41921;SDS011;27609;51.002;5.354;2023-09-18T03:40:12;5.60;;;3.33;;
41921;SDS011;27609;51.002;5.354;2023-09-18T03:42:37;10.68;;;3.67;;
41921;SDS011;27609;51.002;5.354;2023-09-18T03:45:05;10.70;;;3.95;;
41921;SDS011;27609;51.002;5.354;2023-09-18T03:47:32;10.90;;;3.40;;
41921;SDS011;27609;51.002;5.354;2023-09-18T03:49:59;6.57;;;2.92;;
41921;SDS011;27609;51.002;5.354;2023-09-18T03:52:24;9.73;;;2.88;;
41921;SDS011;27609;51.002;5.354;2023-09-18T03:54:50;12.50;;;3.40;;
41921;SDS011;27609;51.002;5.354;2023-09-18T03:57:16;4.32;;;2.83;;
41921;SDS011;27609;51.002;5.354;2023-09-18T03:59:41;9.60;;;3.10;;
41921;SDS011;27609;51.002;5.354;2023-09-18T04:02:07;6.22;;;3.00;;
41921;SDS011;27609;51.002;5.354;2023-09-18T04:04:33;8.50;;;3.08;;
41921;SDS011;27609;51.002;5.354;2023-09-18T04:06:58;8.98;;;3.22;;
41921;SDS011;27609;51.002;5.354;2023-09-18T04:09:24;5.20;;;2.78;;
41921;SDS011;27609;51.002;5.354;2023-09-18T04:11:50;4.70;;;2.53;;
41921;SDS011;27609;51.002;5.354;2023-09-18T04:14:16;13.35;;;2.95;;
41921;SDS011;27609;51.002;5.354;2023-09-18T04:16:41;5.05;;;3.05;;
41921;SDS011;27609;51.002;5.354;2023-09-18T04:19:08;11.35;;;2.90;;
41921;SDS011;27609;51.002;5.354;2023-09-18T04:21:34;8.02;;;2.50;;
41921;SDS011;27609;51.002;5.354;2023-09-18T04:24:00;7.38;;;2.88;;
41921;SDS011;27609;51.002;5.354;2023-09-18T04:26:26;9.90;;;3.38;;
41921;SDS011;27609;51.002;5.354;2023-09-18T04:28:56;8.10;;;3.20;;
41921;SDS011;27609;51.002;5.354;2023-09-18T04:31:22;6.03;;;3.00;;
41921;SDS011;27609;51.002;5.354;2023-09-18T04:33:47;5.97;;;2.90;;
41921;SDS011;27609;51.002;5.354;2023-09-18T04:36:13;8.00;;;2.05;;
41921;SDS011;27609;51.002;5.354;2023-09-18T04:38:39;6.30;;;2.55;;
41921;SDS011;27609;51.002;5.354;2023-09-18T04:41:04;7.95;;;2.95;;
41921;SDS011;27609;51.002;5.354;2023-09-18T04:43:33;3.35;;;2.03;;
41921;SDS011;27609;51.002;5.354;2023-09-18T04:45:59;4.90;;;2.88;;
41921;SDS011;27609;51.002;5.354;2023-09-18T04:48:27;3.40;;;3.05;;
41921;SDS011;27609;51.002;5.354;2023-09-18T04:50:52;4.15;;;2.33;;
41921;SDS011;27609;51.002;5.354;2023-09-18T04:53:18;5.07;;;2.50;;
41921;SDS011;27609;51.002;5.354;2023-09-18T04:55:45;2.70;;;2.28;;
41921;SDS011;27609;51.002;5.354;2023-09-18T04:58:14;3.40;;;2.28;;
41921;SDS011;27609;51.002;5.354;2023-09-18T05:00:40;4.45;;;2.30;;
41921;SDS011;27609;51.002;5.354;2023-09-18T05:03:06;7.32;;;2.15;;
41921;SDS011;27609;51.002;5.354;2023-09-18T05:05:33;4.25;;;1.73;;
41921;SDS011;27609;51.002;5.354;2023-09-18T05:08:01;8.98;;;2.58;;
41921;SDS011;27609;51.002;5.354;2023-09-18T05:10:28;3.55;;;2.40;;
41921;SDS011;27609;51.002;5.354;2023-09-18T05:12:54;5.47;;;2.30;;
41921;SDS011;27609;51.002;5.354;2023-09-18T05:15:24;8.45;;;2.50;;
41921;SDS011;27609;51.002;5.354;2023-09-18T05:17:51;4.25;;;2.10;;
41921;SDS011;27609;51.002;5.354;2023-09-18T05:20:20;2.72;;;2.28;;
41921;SDS011;27609;51.002;5.354;2023-09-18T05:22:49;4.50;;;2.10;;
41921;SDS011;27609;51.002;5.354;2023-09-18T05:25:18;7.47;;;2.50;;
41921;SDS011;27609;51.002;5.354;2023-09-18T05:27:45;3.65;;;2.40;;
41921;SDS011;27609;51.002;5.354;2023-09-18T05:30:13;4.82;;;2.20;;
41921;SDS011;27609;51.002;5.354;2023-09-18T05:32:41;3.58;;;2.05;;
41921;SDS011;27609;51.002;5.354;2023-09-18T05:35:08;4.85;;;2.28;;
41921;SDS011;27609;51.002;5.354;2023-09-18T05:37:39;5.05;;;2.50;;
41921;SDS011;27609;51.002;5.354;2023-09-18T05:40:06;2.72;;;1.77;;
41921;SDS011;27609;51.002;5.354;2023-09-18T05:42:39;3.45;;;1.88;;
41921;SDS011;27609;51.002;5.354;2023-09-18T05:45:11;5.68;;;2.08;;
41921;SDS011;27609;51.002;5.354;2023-09-18T05:47:37;8.20;;;2.20;;
41921;SDS011;27609;51.002;5.354;2023-09-18T05:50:07;8.00;;;3.35;;
41921;SDS011;27609;51.002;5.354;2023-09-18T05:52:34;7.78;;;2.28;;
41921;SDS011;27609;51.002;5.354;2023-09-18T05:55:00;6.60;;;1.80;;
41921;SDS011;27609;51.002;5.354;2023-09-18T05:57:29;6.90;;;1.75;;
41921;SDS011;27609;51.002;5.354;2023-09-18T05:59:55;5.75;;;1.75;;
41921;SDS011;27609;51.002;5.354;2023-09-18T06:02:21;5.07;;;1.73;;
41921;SDS011;27609;51.002;5.354;2023-09-18T06:04:47;5.72;;;1.90;;
41921;SDS011;27609;51.002;5.354;2023-09-18T06:07:14;2.67;;;1.98;;
41921;SDS011;27609;51.002;5.354;2023-09-18T06:09:40;3.95;;;2.20;;
41921;SDS011;27609;51.002;5.354;2023-09-18T06:12:06;4.68;;;2.17;;
41921;SDS011;27609;51.002;5.354;2023-09-18T06:14:34;5.13;;;2.10;;
41921;SDS011;27609;51.002;5.354;2023-09-18T06:17:00;2.75;;;1.60;;
41921;SDS011;27609;51.002;5.354;2023-09-18T06:19:26;6.57;;;2.30;;
41921;SDS011;27609;51.002;5.354;2023-09-18T06:21:52;4.72;;;2.35;;
41921;SDS011;27609;51.002;5.354;2023-09-18T06:24:18;6.55;;;1.90;;
41921;SDS011;27609;51.002;5.354;2023-09-18T06:26:44;3.47;;;1.73;;
41921;SDS011;27609;51.002;5.354;2023-09-18T06:29:09;2.47;;;1.52;;
41921;SDS011;27609;51.002;5.354;2023-09-18T06:31:35;4.68;;;1.80;;
41921;SDS011;27609;51.002;5.354;2023-09-18T06:34:01;2.45;;;1.58;;
41921;SDS011;27609;51.002;5.354;2023-09-18T06:36:26;3.83;;;1.60;;
41921;SDS011;27609;51.002;5.354;2023-09-18T06:38:52;5.93;;;1.65;;
41921;SDS011;27609;51.002;5.354;2023-09-18T06:41:18;4.20;;;1.52;;
41921;SDS011;27609;51.002;5.354;2023-09-18T06:43:44;4.20;;;1.75;;
41921;SDS011;27609;51.002;5.354;2023-09-18T06:46:09;3.65;;;2.25;;
41921;SDS011;27609;51.002;5.354;2023-09-18T06:48:35;4.72;;;1.60;;
41921;SDS011;27609;51.002;5.354;2023-09-18T06:51:01;5.80;;;1.80;;
41921;SDS011;27609;51.002;5.354;2023-09-18T06:53:27;4.85;;;1.70;;
41921;SDS011;27609;51.002;5.354;2023-09-18T06:55:53;4.00;;;1.65;;
41921;SDS011;27609;51.002;5.354;2023-09-18T06:58:19;2.58;;;1.55;;
41921;SDS011;27609;51.002;5.354;2023-09-18T07:00:45;3.42;;;1.80;;
41921;SDS011;27609;51.002;5.354;2023-09-18T07:03:11;6.07;;;1.45;;
41921;SDS011;27609;51.002;5.354;2023-09-18T07:05:37;3.72;;;1.58;;
41921;SDS011;27609;51.002;5.354;2023-09-18T07:08:03;5.60;;;1.60;;
41921;SDS011;27609;51.002;5.354;2023-09-18T07:10:30;2.95;;;1.52;;
41921;SDS011;27609;51.002;5.354;2023-09-18T07:12:58;3.75;;;1.30;;
41921;SDS011;27609;51.002;5.354;2023-09-18T07:15:23;5.28;;;2.28;;
41921;SDS011;27609;51.002;5.354;2023-09-18T07:17:49;7.28;;;1.67;;
41921;SDS011;27609;51.002;5.354;2023-09-18T07:20:14;3.47;;;1.25;;
41921;SDS011;27609;51.002;5.354;2023-09-18T07:22:44;3.08;;;1.40;;
41921;SDS011;27609;51.002;5.354;2023-09-18T07:25:15;5.00;;;1.48;;
41921;SDS011;27609;51.002;5.354;2023-09-18T07:27:42;3.95;;;1.48;;
41921;SDS011;27609;51.002;5.354;2023-09-18T07:30:11;1.75;;;1.38;;
41921;SDS011;27609;51.002;5.354;2023-09-18T07:32:41;6.90;;;2.25;;
41921;SDS011;27609;51.002;5.354;2023-09-18T07:35:08;3.15;;;1.80;;
41921;SDS011;27609;51.002;5.354;2023-09-18T07:37:34;3.35;;;1.58;;
41921;SDS011;27609;51.002;5.354;2023-09-18T07:40:05;4.18;;;1.90;;
41921;SDS011;27609;51.002;5.354;2023-09-18T07:42:31;3.45;;;1.50;;
41921;SDS011;27609;51.002;5.354;2023-09-18T07:44:58;6.10;;;2.70;;
41921;SDS011;27609;51.002;5.354;2023-09-18T07:47:23;3.45;;;1.20;;
41921;SDS011;27609;51.002;5.354;2023-09-18T07:49:49;3.80;;;1.30;;
41921;SDS011;27609;51.002;5.354;2023-09-18T07:52:16;7.32;;;1.60;;
41921;SDS011;27609;51.002;5.354;2023-09-18T07:54:42;5.82;;;1.30;;
41921;SDS011;27609;51.002;5.354;2023-09-18T07:57:08;4.43;;;1.80;;
41921;SDS011;27609;51.002;5.354;2023-09-18T07:59:37;3.17;;;1.40;;
41921;SDS011;27609;51.002;5.354;2023-09-18T08:02:06;1.40;;;1.25;;
41921;SDS011;27609;51.002;5.354;2023-09-18T08:04:32;2.63;;;1.38;;
41921;SDS011;27609;51.002;5.354;2023-09-18T08:06:57;3.90;;;1.75;;
41921;SDS011;27609;51.002;5.354;2023-09-18T08:09:23;1.85;;;1.30;;
41921;SDS011;27609;51.002;5.354;2023-09-18T08:11:49;7.82;;;1.60;;
41921;SDS011;27609;51.002;5.354;2023-09-18T08:14:15;3.65;;;1.45;;
41921;SDS011;27609;51.002;5.354;2023-09-18T08:16:42;6.65;;;2.13;;
41921;SDS011;27609;51.002;5.354;2023-09-18T08:19:07;3.50;;;1.30;;
41921;SDS011;27609;51.002;5.354;2023-09-18T08:21:34;5.32;;;1.50;;
41921;SDS011;27609;51.002;5.354;2023-09-18T08:24:00;3.83;;;1.33;;
41921;SDS011;27609;51.002;5.354;2023-09-18T08:26:26;11.82;;;2.75;;
41921;SDS011;27609;51.002;5.354;2023-09-18T08:28:52;2.47;;;1.38;;
41921;SDS011;27609;51.002;5.354;2023-09-18T08:31:18;6.00;;;1.38;;
41921;SDS011;27609;51.002;5.354;2023-09-18T08:33:44;3.05;;;1.48;;
41921;SDS011;27609;51.002;5.354;2023-09-18T08:36:09;6.95;;;1.33;;
41921;SDS011;27609;51.002;5.354;2023-09-18T08:38:35;4.03;;;1.42;;
41921;SDS011;27609;51.002;5.354;2023-09-18T08:41:01;6.32;;;2.75;;
41921;SDS011;27609;51.002;5.354;2023-09-18T08:43:28;2.13;;;1.50;;
41921;SDS011;27609;51.002;5.354;2023-09-18T08:45:56;4.85;;;1.70;;
41921;SDS011;27609;51.002;5.354;2023-09-18T08:48:28;4.53;;;1.58;;
41921;SDS011;27609;51.002;5.354;2023-09-18T08:51:02;3.67;;;1.33;;
41921;SDS011;27609;51.002;5.354;2023-09-18T08:53:33;4.68;;;1.60;;
41921;SDS011;27609;51.002;5.354;2023-09-18T08:56:01;1.30;;;1.20;;
41921;SDS011;27609;51.002;5.354;2023-09-18T08:58:32;1.85;;;1.27;;
41921;SDS011;27609;51.002;5.354;2023-09-18T09:01:02;3.22;;;1.30;;
41921;SDS011;27609;51.002;5.354;2023-09-18T09:03:29;4.13;;;1.50;;
41921;SDS011;27609;51.002;5.354;2023-09-18T09:05:55;3.60;;;1.60;;
41921;SDS011;27609;51.002;5.354;2023-09-18T09:08:22;4.10;;;1.63;;
41921;SDS011;27609;51.002;5.354;2023-09-18T09:10:48;2.65;;;1.17;;
41921;SDS011;27609;51.002;5.354;2023-09-18T09:13:15;2.65;;;1.58;;
41921;SDS011;27609;51.002;5.354;2023-09-18T09:15:44;2.78;;;1.33;;
41921;SDS011;27609;51.002;5.354;2023-09-18T09:18:11;6.18;;;1.20;;
41921;SDS011;27609;51.002;5.354;2023-09-18T09:20:37;3.92;;;1.58;;
41921;SDS011;27609;51.002;5.354;2023-09-18T09:23:05;2.72;;;1.35;;
41921;SDS011;27609;51.002;5.354;2023-09-18T09:25:32;3.50;;;1.50;;
41921;SDS011;27609;51.002;5.354;2023-09-18T09:27:59;4.72;;;1.52;;
41921;SDS011;27609;51.002;5.354;2023-09-18T09:30:26;6.22;;;1.00;;
41921;SDS011;27609;51.002;5.354;2023-09-18T09:32:54;5.53;;;1.45;;
41921;SDS011;27609;51.002;5.354;2023-09-18T09:35:24;3.90;;;1.67;;
41921;SDS011;27609;51.002;5.354;2023-09-18T09:37:58;5.55;;;2.38;;
41921;SDS011;27609;51.002;5.354;2023-09-18T09:40:26;3.35;;;1.83;;
41921;SDS011;27609;51.002;5.354;2023-09-18T09:42:54;4.20;;;1.40;;
41921;SDS011;27609;51.002;5.354;2023-09-18T09:45:25;6.07;;;1.67;;
41921;SDS011;27609;51.002;5.354;2023-09-18T09:47:56;1.70;;;1.60;;
41921;SDS011;27609;51.002;5.354;2023-09-18T09:50:22;3.08;;;1.67;;
41921;SDS011;27609;51.002;5.354;2023-09-18T09:52:50;3.47;;;1.65;;
41921;SDS011;27609;51.002;5.354;2023-09-18T09:55:27;5.53;;;1.60;;
41921;SDS011;27609;51.002;5.354;2023-09-18T09:57:55;6.57;;;2.33;;
41921;SDS011;27609;51.002;5.354;2023-09-18T10:00:41;5.05;;;1.83;;
41921;SDS011;27609;51.002;5.354;2023-09-18T10:03:11;5.95;;;2.33;;
41921;SDS011;27609;51.002;5.354;2023-09-18T10:05:40;5.57;;;2.50;;
41921;SDS011;27609;51.002;5.354;2023-09-18T10:10:56;5.18;;;2.13;;
41921;SDS011;27609;51.002;5.354;2023-09-18T10:13:27;7.10;;;2.58;;
41921;SDS011;27609;51.002;5.354;2023-09-18T10:15:58;4.30;;;2.28;;
41921;SDS011;27609;51.002;5.354;2023-09-18T10:18:42;4.47;;;2.35;;
41921;SDS011;27609;51.002;5.354;2023-09-18T10:21:28;5.43;;;2.40;;
41921;SDS011;27609;51.002;5.354;2023-09-18T10:24:34;3.97;;;1.60;;
41921;SDS011;27609;51.002;5.354;2023-09-18T10:26:57;5.22;;;2.00;;
41921;SDS011;27609;51.002;5.354;2023-09-18T10:29:25;2.75;;;2.00;;
41921;SDS011;27609;51.002;5.354;2023-09-18T10:31:52;4.30;;;1.88;;
41921;SDS011;27609;51.002;5.354;2023-09-18T10:34:19;4.85;;;1.85;;
41921;SDS011;27609;51.002;5.354;2023-09-18T10:36:49;4.00;;;1.83;;
41921;SDS011;27609;51.002;5.354;2023-09-18T10:39:16;5.47;;;1.98;;
41921;SDS011;27609;51.002;5.354;2023-09-18T10:41:47;3.70;;;1.92;;
41921;SDS011;27609;51.002;5.354;2023-09-18T10:44:14;3.30;;;1.80;;
41921;SDS011;27609;51.002;5.354;2023-09-18T10:46:42;2.65;;;1.67;;
41921;SDS011;27609;51.002;5.354;2023-09-18T10:49:11;2.77;;;1.80;;
41921;SDS011;27609;51.002;5.354;2023-09-18T10:51:37;5.03;;;2.08;;
41921;SDS011;27609;51.002;5.354;2023-09-18T10:54:10;4.30;;;2.20;;
41921;SDS011;27609;51.002;5.354;2023-09-18T10:56:40;5.60;;;2.00;;
41921;SDS011;27609;51.002;5.354;2023-09-18T10:59:07;8.30;;;1.95;;
41921;SDS011;27609;51.002;5.354;2023-09-18T11:01:34;3.67;;;1.95;;
41921;SDS011;27609;51.002;5.354;2023-09-18T11:04:02;7.50;;;1.80;;
41921;SDS011;27609;51.002;5.354;2023-09-18T11:07:00;7.40;;;2.00;;
41921;SDS011;27609;51.002;5.354;2023-09-18T11:09:19;2.95;;;1.75;;
41921;SDS011;27609;51.002;5.354;2023-09-18T11:11:53;4.38;;;2.03;;
41921;SDS011;27609;51.002;5.354;2023-09-18T11:14:22;5.07;;;2.05;;
41921;SDS011;27609;51.002;5.354;2023-09-18T11:16:49;2.83;;;1.75;;
41921;SDS011;27609;51.002;5.354;2023-09-18T11:19:18;6.15;;;2.65;;
41921;SDS011;27609;51.002;5.354;2023-09-18T11:21:44;4.15;;;1.70;;
41921;SDS011;27609;51.002;5.354;2023-09-18T11:24:17;2.70;;;1.80;;
41921;SDS011;27609;51.002;5.354;2023-09-18T11:26:48;6.13;;;2.00;;
41921;SDS011;27609;51.002;5.354;2023-09-18T11:29:15;5.38;;;2.22;;
41921;SDS011;27609;51.002;5.354;2023-09-18T11:31:45;7.30;;;1.83;;
41921;SDS011;27609;51.002;5.354;2023-09-18T11:34:12;4.65;;;1.58;;
41921;SDS011;27609;51.002;5.354;2023-09-18T11:36:37;3.13;;;1.70;;
41921;SDS011;27609;51.002;5.354;2023-09-18T11:39:03;3.40;;;1.90;;
41921;SDS011;27609;51.002;5.354;2023-09-18T11:41:33;3.95;;;1.73;;
41921;SDS011;27609;51.002;5.354;2023-09-18T11:46:39;2.80;;;1.40;;
41921;SDS011;27609;51.002;5.354;2023-09-18T11:49:12;4.55;;;1.58;;
41921;SDS011;27609;51.002;5.354;2023-09-18T11:51:39;3.17;;;1.70;;
41921;SDS011;27609;51.002;5.354;2023-09-18T11:54:06;6.80;;;2.10;;
41921;SDS011;27609;51.002;5.354;2023-09-18T11:56:33;4.82;;;1.60;;
41921;SDS011;27609;51.002;5.354;2023-09-18T11:58:59;2.63;;;1.38;;
41921;SDS011;27609;51.002;5.354;2023-09-18T12:01:29;2.92;;;1.48;;
41921;SDS011;27609;51.002;5.354;2023-09-18T12:04:02;2.10;;;1.48;;
41921;SDS011;27609;51.002;5.354;2023-09-18T12:06:33;5.53;;;1.70;;
41921;SDS011;27609;51.002;5.354;2023-09-18T12:09:08;3.63;;;1.38;;
41921;SDS011;27609;51.002;5.354;2023-09-18T12:11:36;7.65;;;1.77;;
41921;SDS011;27609;51.002;5.354;2023-09-18T12:14:06;7.97;;;2.03;;
41921;SDS011;27609;51.002;5.354;2023-09-18T12:16:41;3.88;;;1.50;;
41921;SDS011;27609;51.002;5.354;2023-09-18T12:19:08;7.25;;;1.67;;
41921;SDS011;27609;51.002;5.354;2023-09-18T12:21:42;2.30;;;1.52;;
41921;SDS011;27609;51.002;5.354;2023-09-18T12:24:15;1.70;;;1.50;;
41921;SDS011;27609;51.002;5.354;2023-09-18T12:26:47;3.78;;;1.75;;
41921;SDS011;27609;51.002;5.354;2023-09-18T12:29:12;2.30;;;1.40;;
41921;SDS011;27609;51.002;5.354;2023-09-18T12:31:38;2.95;;;1.50;;
41921;SDS011;27609;51.002;5.354;2023-09-18T12:34:04;2.10;;;1.80;;
41921;SDS011;27609;51.002;5.354;2023-09-18T12:36:32;2.58;;;1.63;;
41921;SDS011;27609;51.002;5.354;2023-09-18T12:38:59;3.78;;;1.90;;
41921;SDS011;27609;51.002;5.354;2023-09-18T12:41:27;2.67;;;1.83;;
41921;SDS011;27609;51.002;5.354;2023-09-18T12:43:55;1.85;;;1.30;;
41921;SDS011;27609;51.002;5.354;2023-09-18T12:46:21;5.63;;;1.45;;
41921;SDS011;27609;51.002;5.354;2023-09-18T12:48:48;4.32;;;1.40;;
41921;SDS011;27609;51.002;5.354;2023-09-18T12:51:13;6.35;;;1.83;;
41921;SDS011;27609;51.002;5.354;2023-09-18T12:53:41;2.20;;;1.30;;
41921;SDS011;27609;51.002;5.354;2023-09-18T12:56:10;3.25;;;1.63;;
41921;SDS011;27609;51.002;5.354;2023-09-18T12:58:40;1.70;;;1.20;;
41921;SDS011;27609;51.002;5.354;2023-09-18T13:01:07;5.25;;;1.13;;
41921;SDS011;27609;51.002;5.354;2023-09-18T13:03:44;4.65;;;1.83;;
41921;SDS011;27609;51.002;5.354;2023-09-18T13:06:17;3.60;;;2.20;;
41921;SDS011;27609;51.002;5.354;2023-09-18T13:08:44;3.20;;;1.60;;
41921;SDS011;27609;51.002;5.354;2023-09-18T13:11:10;2.08;;;1.60;;
41921;SDS011;27609;51.002;5.354;2023-09-18T13:13:37;6.07;;;1.48;;
41921;SDS011;27609;51.002;5.354;2023-09-18T13:16:09;1.20;;;1.10;;
41921;SDS011;27609;51.002;5.354;2023-09-18T13:18:35;4.22;;;1.60;;
41921;SDS011;27609;51.002;5.354;2023-09-18T13:21:11;3.42;;;1.10;;
41921;SDS011;27609;51.002;5.354;2023-09-18T13:23:38;2.65;;;1.40;;
41921;SDS011;27609;51.002;5.354;2023-09-18T13:26:05;4.43;;;1.55;;
41921;SDS011;27609;51.002;5.354;2023-09-18T13:28:35;2.45;;;1.48;;
41921;SDS011;27609;51.002;5.354;2023-09-18T13:31:04;4.93;;;1.52;;
41921;SDS011;27609;51.002;5.354;2023-09-18T13:33:31;2.08;;;1.63;;
41921;SDS011;27609;51.002;5.354;2023-09-18T13:35:58;1.95;;;1.60;;
41921;SDS011;27609;51.002;5.354;2023-09-18T13:38:24;3.53;;;1.73;;
41921;SDS011;27609;51.002;5.354;2023-09-18T13:40:51;4.40;;;1.50;;
41921;SDS011;27609;51.002;5.354;2023-09-18T13:43:20;5.65;;;1.70;;
41921;SDS011;27609;51.002;5.354;2023-09-18T13:45:49;5.25;;;1.33;;
41921;SDS011;27609;51.002;5.354;2023-09-18T13:48:18;3.92;;;1.52;;
41921;SDS011;27609;51.002;5.354;2023-09-18T13:50:44;2.72;;;1.10;;
41921;SDS011;27609;51.002;5.354;2023-09-18T13:53:11;3.20;;;1.38;;
41921;SDS011;27609;51.002;5.354;2023-09-18T13:55:37;2.10;;;1.35;;
41921;SDS011;27609;51.002;5.354;2023-09-18T13:58:03;2.13;;;1.17;;
41921;SDS011;27609;51.002;5.354;2023-09-18T14:00:29;2.35;;;1.67;;
41921;SDS011;27609;51.002;5.354;2023-09-18T14:02:55;6.18;;;1.63;;
41921;SDS011;27609;51.002;5.354;2023-09-18T14:05:21;5.07;;;1.77;;
41921;SDS011;27609;51.002;5.354;2023-09-18T14:07:47;2.13;;;1.70;;
41921;SDS011;27609;51.002;5.354;2023-09-18T14:10:13;2.15;;;1.40;;
41921;SDS011;27609;51.002;5.354;2023-09-18T14:12:40;1.80;;;1.20;;
41921;SDS011;27609;51.002;5.354;2023-09-18T14:15:07;1.90;;;1.50;;
41921;SDS011;27609;51.002;5.354;2023-09-18T14:17:36;2.85;;;1.67;;
41921;SDS011;27609;51.002;5.354;2023-09-18T14:20:03;6.20;;;1.55;;
41921;SDS011;27609;51.002;5.354;2023-09-18T14:22:33;2.20;;;1.35;;
41921;SDS011;27609;51.002;5.354;2023-09-18T14:25:02;22.83;;;1.80;;
41921;SDS011;27609;51.002;5.354;2023-09-18T14:27:31;3.15;;;1.00;;
41921;SDS011;27609;51.002;5.354;2023-09-18T14:29:57;3.15;;;1.70;;
41921;SDS011;27609;51.002;5.354;2023-09-18T14:32:23;2.38;;;1.25;;
41921;SDS011;27609;51.002;5.354;2023-09-18T14:34:48;4.80;;;1.60;;
41921;SDS011;27609;51.002;5.354;2023-09-18T14:37:14;3.15;;;1.40;;
41921;SDS011;27609;51.002;5.354;2023-09-18T14:39:40;2.72;;;1.30;;
41921;SDS011;27609;51.002;5.354;2023-09-18T14:42:06;3.47;;;1.48;;
41921;SDS011;27609;51.002;5.354;2023-09-18T14:44:32;2.17;;;1.30;;
41921;SDS011;27609;51.002;5.354;2023-09-18T14:46:57;3.25;;;1.30;;
41921;SDS011;27609;51.002;5.354;2023-09-18T14:49:24;2.65;;;1.70;;
41921;SDS011;27609;51.002;5.354;2023-09-18T14:51:52;6.82;;;1.70;;
41921;SDS011;27609;51.002;5.354;2023-09-18T14:54:19;3.13;;;1.08;;
41921;SDS011;27609;51.002;5.354;2023-09-18T14:56:44;4.93;;;1.38;;
41921;SDS011;27609;51.002;5.354;2023-09-18T14:59:12;4.18;;;1.48;;
41921;SDS011;27609;51.002;5.354;2023-09-18T15:01:37;2.05;;;1.40;;